Time;durP1;ratioP1;P1;durP2;ratioP2;P2;SDS_P1;SDS_P2;PMS_P1;PMS_P2;Temp;Humidity;BMP_temperature;BMP_pressure;BME280_temperature;BME280_humidity;BME280_pressure;Samples;Min_cycle;Max_cycle;Signal;HPM_P1;HPM_P2
2022/04/13 00:01:07;;;;;;;14.45;9.52;;;;;;;;;;5048797;28;20044;-67
2022/04/13 00:03:33;;;;;;;13.82;9.10;;;;;;;;;;5049598;28;20041;-68
2022/04/13 00:05:59;;;;;;;11.82;9.00;;;;;;;;;;5049892;28;20048;-68
2022/04/13 00:08:25;;;;;;;14.50;9.30;;;;;;;;;;5052401;28;20048;-68
2022/04/13 00:10:51;;;;;;;14.25;8.57;;;;;;;;;;5056557;28;20037;-68
2022/04/13 00:13:18;;;;;;;11.73;8.82;;;;;;;;;;5049854;28;20052;-68
2022/04/13 00:15:44;;;;;;;13.70;9.27;;;;;;;;;;5049990;28;20045;-68
2022/04/13 00:18:10;;;;;;;12.23;9.23;;;;;;;;;;5042437;28;20540;-67
2022/04/13 00:20:36;;;;;;;12.82;7.85;;;;;;;;;;5049694;28;20108;-66
2022/04/13 00:23:03;;;;;;;11.80;7.38;;;;;;;;;;5049995;28;20045;-68
2022/04/13 00:25:30;;;;;;;10.25;7.00;;;;;;;;;;5046839;28;20048;-67
2022/04/13 00:27:56;;;;;;;11.98;7.80;;;;;;;;;;5062785;28;20041;-68
2022/04/13 00:30:22;;;;;;;11.52;7.47;;;;;;;;;;5049297;28;20037;-68
2022/04/13 00:32:51;;;;;;;10.55;7.20;;;;;;;;;;5043032;28;20037;-68
2022/04/13 00:35:18;;;;;;;11.00;6.82;;;;;;;;;;5021192;28;20555;-68
2022/04/13 00:37:44;;;;;;;12.25;7.18;;;;;;;;;;5035774;28;20553;-68
2022/04/13 00:40:10;;;;;;;12.27;6.93;;;;;;;;;;5051117;28;20041;-67
2022/04/13 00:42:36;;;;;;;12.73;6.65;;;;;;;;;;5053159;28;20088;-68
2022/04/13 00:45:12;;;;;;;10.25;6.53;;;;;;;;;;5048720;28;20052;-68
2022/04/13 00:47:39;;;;;;;11.07;6.97;;;;;;;;;;5029274;28;20052;-68
2022/04/13 00:50:06;;;;;;;11.25;7.15;;;;;;;;;;5028619;28;20041;-68
2022/04/13 00:52:34;;;;;;;12.52;6.88;;;;;;;;;;5082786;28;20041;-68
2022/04/13 00:55:02;;;;;;;11.07;7.38;;;;;;;;;;5036927;28;20072;-68
2022/04/13 00:57:33;;;;;;;12.23;6.70;;;;;;;;;;5034113;28;20061;-68
2022/04/13 01:00:01;;;;;;;9.98;7.18;;;;;;;;;;5065241;28;20045;-68
2022/04/13 01:02:28;;;;;;;14.68;7.30;;;;;;;;;;5047149;28;20041;-68
2022/04/13 01:04:55;;;;;;;13.25;7.35;;;;;;;;;;5050904;28;20053;-68
2022/04/13 01:07:22;;;;;;;9.50;6.55;;;;;;;;;;5051379;28;20370;-68
2022/04/13 01:09:49;;;;;;;8.65;7.00;;;;;;;;;;5045914;28;20069;-68
2022/04/13 01:12:22;;;;;;;11.75;6.95;;;;;;;;;;5053160;28;20045;-68
2022/04/13 01:14:48;;;;;;;11.20;6.85;;;;;;;;;;5064728;28;20040;-68
2022/04/13 01:17:18;;;;;;;11.23;7.43;;;;;;;;;;5036247;28;20828;-68
2022/04/13 01:19:46;;;;;;;9.75;7.25;;;;;;;;;;5048325;28;20112;-68
2022/04/13 01:22:17;;;;;;;13.63;7.95;;;;;;;;;;5034827;28;20037;-68
2022/04/13 01:24:44;;;;;;;11.35;7.65;;;;;;;;;;5052125;28;20049;-68
2022/04/13 01:27:10;;;;;;;10.73;7.10;;;;;;;;;;5045953;28;20041;-68
2022/04/13 01:29:36;;;;;;;13.40;8.07;;;;;;;;;;5052458;28;20049;-67
2022/04/13 01:32:03;;;;;;;11.95;7.03;;;;;;;;;;5050580;28;20037;-67
2022/04/13 01:34:29;;;;;;;11.50;7.10;;;;;;;;;;5051264;28;20068;-68
2022/04/13 01:36:55;;;;;;;14.48;7.35;;;;;;;;;;5050291;28;20040;-68
2022/04/13 01:39:21;;;;;;;10.57;7.30;;;;;;;;;;5060927;28;20052;-68
2022/04/13 01:41:48;;;;;;;10.48;7.80;;;;;;;;;;5050677;28;20072;-68
2022/04/13 01:44:15;;;;;;;13.85;7.50;;;;;;;;;;5049691;28;20074;-68
2022/04/13 01:46:41;;;;;;;9.95;7.82;;;;;;;;;;5051796;28;20136;-67
2022/04/13 01:49:07;;;;;;;11.45;7.53;;;;;;;;;;5085447;28;20053;-68
2022/04/13 01:51:33;;;;;;;11.18;7.80;;;;;;;;;;5051757;28;20029;-68
2022/04/13 01:53:59;;;;;;;13.52;7.78;;;;;;;;;;5050130;28;20039;-67
2022/04/13 01:56:25;;;;;;;11.77;7.50;;;;;;;;;;5050752;28;20164;-68
2022/04/13 01:58:51;;;;;;;13.38;7.85;;;;;;;;;;5043520;28;20496;-67
2022/04/13 02:01:19;;;;;;;10.48;7.80;;;;;;;;;;5051332;28;20060;-67
2022/04/13 02:03:45;;;;;;;11.68;7.95;;;;;;;;;;5051171;28;20056;-68
2022/04/13 02:06:11;;;;;;;11.60;8.27;;;;;;;;;;5051594;28;20041;-68
2022/04/13 02:08:37;;;;;;;14.07;8.43;;;;;;;;;;5050468;28;20084;-67
2022/04/13 02:11:03;;;;;;;11.50;7.72;;;;;;;;;;5051757;28;20041;-68
2022/04/13 02:13:30;;;;;;;12.35;7.47;;;;;;;;;;5051444;28;20389;-68
2022/04/13 02:15:56;;;;;;;10.13;7.18;;;;;;;;;;5050096;28;20103;-68
2022/04/13 02:18:22;;;;;;;13.40;8.38;;;;;;;;;;5034565;28;20511;-68
2022/04/13 02:20:48;;;;;;;11.40;7.65;;;;;;;;;;5049173;28;20040;-67
2022/04/13 02:23:14;;;;;;;11.52;7.97;;;;;;;;;;5050939;28;20041;-68
2022/04/13 02:25:40;;;;;;;14.73;8.57;;;;;;;;;;5050120;28;20131;-67
2022/04/13 02:28:07;;;;;;;11.77;8.57;;;;;;;;;;5054904;28;20509;-68
2022/04/13 02:30:33;;;;;;;12.50;8.07;;;;;;;;;;5051151;28;20037;-68
2022/04/13 02:33:00;;;;;;;13.88;8.75;;;;;;;;;;5049595;28;20044;-68
2022/04/13 02:35:26;;;;;;;13.63;9.18;;;;;;;;;;5050044;28;20044;-68
2022/04/13 02:37:52;;;;;;;12.40;9.38;;;;;;;;;;5036978;28;20041;-67
2022/04/13 02:40:19;;;;;;;14.95;10.02;;;;;;;;;;5048347;28;20121;-68
2022/04/13 02:42:46;;;;;;;16.00;10.18;;;;;;;;;;5050457;28;20081;-68
2022/04/13 02:45:12;;;;;;;15.85;9.98;;;;;;;;;;5050759;28;20127;-67
2022/04/13 02:47:38;;;;;;;13.48;9.80;;;;;;;;;;5049860;28;20143;-68
2022/04/13 02:50:06;;;;;;;18.85;11.60;;;;;;;;;;5051134;28;20175;-68
2022/04/13 02:52:32;;;;;;;16.60;10.95;;;;;;;;;;5050348;28;20099;-68
2022/04/13 02:54:58;;;;;;;18.48;11.32;;;;;;;;;;5049098;28;20116;-68
2022/04/13 02:57:25;;;;;;;21.40;12.43;;;;;;;;;;5033540;28;20044;-67
2022/04/13 02:59:51;;;;;;;20.52;11.50;;;;;;;;;;5052238;28;20484;-68
2022/04/13 03:02:18;;;;;;;17.92;12.15;;;;;;;;;;5034334;28;20373;-68
2022/04/13 03:04:46;;;;;;;21.40;12.20;;;;;;;;;;5034030;28;20486;-68
2022/04/13 03:07:12;;;;;;;19.30;12.13;;;;;;;;;;5050802;28;20064;-68
2022/04/13 03:09:39;;;;;;;17.85;11.95;;;;;;;;;;5054782;28;20040;-68
2022/04/13 03:12:06;;;;;;;19.58;11.20;;;;;;;;;;5047880;28;20040;-68
2022/04/13 03:14:32;;;;;;;16.67;10.60;;;;;;;;;;5050782;28;20045;-68
2022/04/13 03:16:58;;;;;;;16.83;10.63;;;;;;;;;;5050261;28;20044;-67
2022/04/13 03:19:25;;;;;;;18.73;11.68;;;;;;;;;;5048493;28;20075;-68
2022/04/13 03:21:53;;;;;;;14.35;10.90;;;;;;;;;;5051454;28;20040;-68
2022/04/13 03:24:19;;;;;;;16.70;11.27;;;;;;;;;;5064126;28;20045;-68
2022/04/13 03:26:45;;;;;;;17.00;11.45;;;;;;;;;;5052363;28;20033;-68
2022/04/13 03:29:11;;;;;;;19.25;12.07;;;;;;;;;;5053747;28;20033;-68
2022/04/13 03:31:37;;;;;;;17.40;12.90;;;;;;;;;;5049904;28;20033;-68
2022/04/13 03:34:03;;;;;;;17.23;12.38;;;;;;;;;;5050231;28;20037;-68
2022/04/13 03:36:29;;;;;;;19.02;12.32;;;;;;;;;;5050434;28;20055;-68
2022/04/13 03:38:55;;;;;;;27.20;13.68;;;;;;;;;;5046621;28;20124;-68
2022/04/13 03:41:21;;;;;;;19.20;13.25;;;;;;;;;;5050633;28;20126;-68
2022/04/13 03:43:47;;;;;;;19.45;13.70;;;;;;;;;;5042064;28;20053;-68
2022/04/13 03:46:13;;;;;;;20.77;12.63;;;;;;;;;;5049939;28;20048;-68
2022/04/13 03:48:39;;;;;;;22.42;13.65;;;;;;;;;;5045680;28;20048;-68
2022/04/13 03:51:05;;;;;;;19.00;13.15;;;;;;;;;;5041638;28;20097;-68
2022/04/13 03:53:32;;;;;;;21.02;13.30;;;;;;;;;;5046305;28;20040;-68
2022/04/13 03:55:58;;;;;;;20.42;13.80;;;;;;;;;;5050512;28;20041;-68
2022/04/13 03:58:24;;;;;;;21.88;14.90;;;;;;;;;;5041244;28;20123;-68
2022/04/13 04:00:50;;;;;;;21.10;15.15;;;;;;;;;;5047757;28;20044;-68
2022/04/13 04:03:17;;;;;;;22.02;13.82;;;;;;;;;;5042170;28;20068;-68
2022/04/13 04:05:43;;;;;;;23.67;14.15;;;;;;;;;;5048206;28;20140;-68
2022/04/13 04:08:09;;;;;;;22.73;14.25;;;;;;;;;;5047642;28;20037;-68
2022/04/13 04:10:35;;;;;;;25.30;14.80;;;;;;;;;;5052214;28;20485;-68
2022/04/13 04:13:01;;;;;;;22.35;15.35;;;;;;;;;;5054469;28;20045;-67
2022/04/13 04:15:27;;;;;;;23.73;15.15;;;;;;;;;;5049822;28;20116;-67
2022/04/13 04:17:53;;;;;;;20.35;14.05;;;;;;;;;;5061432;28;20152;-68
2022/04/13 04:20:19;;;;;;;21.45;14.75;;;;;;;;;;5063736;28;20068;-68
2022/04/13 04:22:45;;;;;;;21.42;15.07;;;;;;;;;;5051077;28;20052;-68
2022/04/13 04:25:11;;;;;;;21.88;14.05;;;;;;;;;;5065763;28;20036;-68
2022/04/13 04:27:37;;;;;;;23.52;14.38;;;;;;;;;;5055126;28;20480;-68
2022/04/13 04:30:04;;;;;;;27.90;15.18;;;;;;;;;;5048405;28;20095;-67
2022/04/13 04:32:30;;;;;;;23.23;14.88;;;;;;;;;;5066212;28;20037;-68
2022/04/13 04:34:56;;;;;;;23.27;15.40;;;;;;;;;;5051510;28;20055;-68
2022/04/13 04:37:22;;;;;;;23.05;14.95;;;;;;;;;;5046217;28;20045;-68
2022/04/13 04:39:48;;;;;;;21.63;14.23;;;;;;;;;;5083464;28;20052;-68
2022/04/13 04:42:14;;;;;;;23.02;15.27;;;;;;;;;;5046615;28;20045;-68
2022/04/13 04:44:40;;;;;;;23.30;15.23;;;;;;;;;;5053291;28;20045;-68
2022/04/13 04:47:06;;;;;;;25.33;16.40;;;;;;;;;;5043626;28;20520;-68
2022/04/13 04:49:32;;;;;;;22.67;15.68;;;;;;;;;;5050489;28;20378;-68
2022/04/13 04:51:58;;;;;;;24.00;15.68;;;;;;;;;;5048925;28;20040;-68
2022/04/13 04:54:24;;;;;;;25.83;15.52;;;;;;;;;;5052504;28;20037;-68
2022/04/13 04:56:50;;;;;;;24.38;16.27;;;;;;;;;;5045454;28;20110;-68
2022/04/13 04:59:16;;;;;;;22.10;15.48;;;;;;;;;;5052544;28;20072;-68
2022/04/13 05:01:43;;;;;;;25.00;16.55;;;;;;;;;;5050769;28;20044;-68
2022/04/13 05:04:09;;;;;;;23.60;14.52;;;;;;;;;;5046402;28;20464;-68
2022/04/13 05:06:35;;;;;;;22.50;15.25;;;;;;;;;;5049219;28;20084;-68
2022/04/13 05:09:01;;;;;;;23.88;15.18;;;;;;;;;;5052147;28;20044;-68
2022/04/13 05:11:27;;;;;;;19.98;14.52;;;;;;;;;;5051510;28;20044;-67
2022/04/13 05:13:53;;;;;;;21.02;14.63;;;;;;;;;;5067521;28;20040;-68
2022/04/13 05:16:20;;;;;;;24.02;14.32;;;;;;;;;;5051103;28;20076;-68
2022/04/13 05:18:46;;;;;;;19.63;14.18;;;;;;;;;;5046915;28;20545;-67
2022/04/13 05:21:13;;;;;;;22.42;15.15;;;;;;;;;;5049844;28;20386;-67
2022/04/13 05:23:41;;;;;;;20.73;14.63;;;;;;;;;;5048953;28;20121;-68
2022/04/13 05:26:07;;;;;;;23.27;15.13;;;;;;;;;;5046861;28;20417;-68
2022/04/13 05:28:33;;;;;;;20.88;13.88;;;;;;;;;;5051599;28;20037;-68
2022/04/13 05:30:59;;;;;;;21.58;14.57;;;;;;;;;;5051957;28;20041;-67
2022/04/13 05:33:25;;;;;;;22.58;15.05;;;;;;;;;;5051565;28;20045;-67
2022/04/13 05:35:51;;;;;;;21.70;15.10;;;;;;;;;;5051565;28;20123;-68
2022/04/13 05:38:18;;;;;;;22.90;16.02;;;;;;;;;;5050623;28;20103;-68
2022/04/13 05:40:44;;;;;;;24.13;14.75;;;;;;;;;;5081235;28;20052;-68
2022/04/13 05:43:11;;;;;;;22.10;14.98;;;;;;;;;;5046934;28;20048;-68
2022/04/13 05:45:37;;;;;;;24.20;14.05;;;;;;;;;;5043034;28;20067;-67
2022/04/13 05:48:03;;;;;;;23.35;14.45;;;;;;;;;;5047687;28;20041;-67
2022/04/13 05:50:29;;;;;;;21.08;13.25;;;;;;;;;;5032846;28;20033;-67
2022/04/13 05:52:55;;;;;;;20.25;13.82;;;;;;;;;;5045277;28;20116;-67
2022/04/13 05:55:21;;;;;;;25.70;14.32;;;;;;;;;;5047926;28;20044;-67
2022/04/13 05:57:47;;;;;;;19.85;14.05;;;;;;;;;;5050403;28;20441;-68
2022/04/13 06:00:14;;;;;;;21.83;12.80;;;;;;;;;;5047084;28;20095;-68
2022/04/13 06:02:41;;;;;;;21.70;13.82;;;;;;;;;;5049373;28;20040;-67
2022/04/13 06:05:08;;;;;;;21.00;14.02;;;;;;;;;;5050424;28;20057;-68
2022/04/13 06:07:34;;;;;;;19.10;12.65;;;;;;;;;;5049572;28;20037;-67
2022/04/13 06:10:02;;;;;;;18.50;12.00;;;;;;;;;;5047264;28;20041;-67
2022/04/13 06:12:29;;;;;;;20.08;10.93;;;;;;;;;;5030000;28;20048;-68
2022/04/13 06:15:08;;;;;;;14.18;11.02;;;;;;;;;;5030575;28;20116;-68
2022/04/13 06:17:34;;;;;;;17.00;11.38;;;;;;;;;;5083317;28;20478;-67
2022/04/13 06:20:00;;;;;;;17.45;11.15;;;;;;;;;;5048309;28;20366;-67
2022/04/13 06:22:27;;;;;;;18.85;10.75;;;;;;;;;;5030616;28;20505;-67
2022/04/13 06:24:53;;;;;;;20.10;11.82;;;;;;;;;;5033607;28;20056;-68
2022/04/13 06:27:19;;;;;;;18.75;10.75;;;;;;;;;;5067326;28;20381;-68
2022/04/13 06:29:45;;;;;;;15.43;9.50;;;;;;;;;;5052578;28;20149;-68
2022/04/13 06:32:12;;;;;;;13.80;9.68;;;;;;;;;;5048804;28;20575;-67
2022/04/13 06:34:38;;;;;;;12.45;9.45;;;;;;;;;;5064986;28;20041;-67
2022/04/13 06:37:04;;;;;;;18.30;9.45;;;;;;;;;;5047178;28;20052;-67
2022/04/13 06:39:31;;;;;;;15.63;9.30;;;;;;;;;;5050593;28;20037;-68
2022/04/13 06:41:57;;;;;;;16.58;10.20;;;;;;;;;;5051649;28;20501;-67
2022/04/13 06:44:23;;;;;;;14.48;9.07;;;;;;;;;;5051084;28;20401;-67
2022/04/13 06:46:49;;;;;;;15.85;9.80;;;;;;;;;;5051258;28;20424;-68
2022/04/13 06:49:15;;;;;;;16.42;9.15;;;;;;;;;;5053234;28;20040;-67
2022/04/13 06:51:41;;;;;;;13.55;8.85;;;;;;;;;;5050481;28;20473;-68
2022/04/13 06:54:07;;;;;;;14.30;9.10;;;;;;;;;;5051358;28;20103;-67
2022/04/13 06:56:33;;;;;;;13.32;9.32;;;;;;;;;;5053220;28;20040;-66
2022/04/13 06:58:59;;;;;;;14.90;9.70;;;;;;;;;;5049870;28;20045;-67
2022/04/13 07:01:26;;;;;;;16.92;9.30;;;;;;;;;;5049735;28;20068;-67
2022/04/13 07:03:52;;;;;;;14.90;9.45;;;;;;;;;;5049339;28;20037;-67
2022/04/13 07:06:18;;;;;;;13.13;8.90;;;;;;;;;;5049556;28;20527;-67
2022/04/13 07:08:44;;;;;;;13.02;9.23;;;;;;;;;;5050984;28;20381;-67
2022/04/13 07:11:10;;;;;;;13.88;9.70;;;;;;;;;;5054954;28;20138;-67
2022/04/13 07:13:36;;;;;;;18.83;9.30;;;;;;;;;;5055459;28;20044;-67
2022/04/13 07:16:02;;;;;;;15.70;9.88;;;;;;;;;;5050700;28;20045;-67
2022/04/13 07:18:28;;;;;;;14.63;8.95;;;;;;;;;;5050247;28;20389;-67
2022/04/13 07:20:54;;;;;;;17.52;9.65;;;;;;;;;;5054486;28;20073;-67
2022/04/13 07:23:20;;;;;;;15.85;8.80;;;;;;;;;;5051023;28;20040;-67
2022/04/13 07:25:47;;;;;;;13.02;9.10;;;;;;;;;;5050773;28;20574;-67
2022/04/13 07:28:13;;;;;;;16.40;8.82;;;;;;;;;;5050428;28;20052;-67
2022/04/13 07:30:39;;;;;;;15.43;9.32;;;;;;;;;;5050633;28;20045;-67
2022/04/13 07:33:05;;;;;;;16.35;8.82;;;;;;;;;;5050384;28;20040;-67
2022/04/13 07:35:32;;;;;;;14.40;8.90;;;;;;;;;;5047588;28;20366;-67
2022/04/13 07:37:58;;;;;;;16.95;8.35;;;;;;;;;;5049966;28;20072;-67
2022/04/13 07:40:24;;;;;;;12.95;8.18;;;;;;;;;;5050969;28;20440;-67
2022/04/13 07:42:50;;;;;;;17.05;8.45;;;;;;;;;;5077586;28;20055;-67
2022/04/13 07:45:17;;;;;;;11.63;7.90;;;;;;;;;;5047855;28;20433;-67
2022/04/13 07:47:43;;;;;;;14.50;7.53;;;;;;;;;;5049675;28;20077;-66
2022/04/13 07:50:13;;;;;;;14.70;7.55;;;;;;;;;;5051285;28;20037;-67
2022/04/13 07:52:40;;;;;;;17.63;7.93;;;;;;;;;;5050079;28;20090;-67
2022/04/13 07:55:07;;;;;;;15.20;8.38;;;;;;;;;;5049678;28;20535;-67
2022/04/13 07:57:33;;;;;;;12.38;8.02;;;;;;;;;;5050047;28;20045;-67
2022/04/13 07:59:59;;;;;;;14.05;8.57;;;;;;;;;;5049265;28;20037;-67
2022/04/13 08:02:27;;;;;;;15.65;8.80;;;;;;;;;;5049598;28;20382;-67
2022/04/13 08:04:55;;;;;;;14.80;9.63;;;;;;;;;;5048076;28;20383;-67
2022/04/13 08:07:21;;;;;;;15.15;8.90;;;;;;;;;;5049888;28;20123;-67
2022/04/13 08:09:47;;;;;;;15.75;9.52;;;;;;;;;;5048488;28;20051;-67
2022/04/13 08:12:15;;;;;;;18.83;10.15;;;;;;;;;;5082906;28;20043;-67
2022/04/13 08:14:44;;;;;;;19.02;9.80;;;;;;;;;;5064430;28;20045;-67
2022/04/13 08:17:10;;;;;;;13.40;8.88;;;;;;;;;;5051235;28;20535;-67
2022/04/13 08:19:36;;;;;;;17.23;8.70;;;;;;;;;;5049695;28;20064;-67
2022/04/13 08:22:02;;;;;;;17.27;8.80;;;;;;;;;;5044932;28;20533;-67
2022/04/13 08:24:28;;;;;;;15.02;7.00;;;;;;;;;;5044134;28;20044;-67
2022/04/13 08:26:54;;;;;;;11.90;7.35;;;;;;;;;;5045648;28;20100;-65
2022/04/13 08:29:20;;;;;;;13.60;7.65;;;;;;;;;;5048203;28;20060;-67
2022/04/13 08:31:46;;;;;;;14.20;7.22;;;;;;;;;;5047717;28;20090;-67
2022/04/13 08:34:12;;;;;;;10.30;6.63;;;;;;;;;;5050985;28;20062;-67
2022/04/13 08:36:38;;;;;;;10.00;6.93;;;;;;;;;;5052539;28;20423;-67
2022/04/13 08:39:08;;;;;;;13.32;7.68;;;;;;;;;;5076297;28;20135;-67
2022/04/13 08:41:51;;;;;;;14.48;6.78;;;;;;;;;;5052990;28;20473;-67
2022/04/13 08:44:22;;;;;;;10.07;6.30;;;;;;;;;;5053975;28;20052;-67
2022/04/13 08:46:50;;;;;;;14.27;7.00;;;;;;;;;;5059073;28;20071;-67
2022/04/13 08:49:17;;;;;;;11.32;6.82;;;;;;;;;;5054795;28;20063;-67
2022/04/13 08:51:43;;;;;;;12.80;7.28;;;;;;;;;;5054678;28;20086;-67
2022/04/13 08:54:20;;;;;;;10.68;6.53;;;;;;;;;;5056828;28;20041;-67
2022/04/13 08:56:48;;;;;;;15.65;7.38;;;;;;;;;;5056171;28;20045;-67
2022/04/13 08:59:26;;;;;;;14.13;7.10;;;;;;;;;;5060998;28;20091;-67
2022/04/13 09:02:13;;;;;;;11.23;6.70;;;;;;;;;;5058704;28;20029;-67
2022/04/13 09:04:43;;;;;;;11.77;7.60;;;;;;;;;;5036340;28;20048;-67
2022/04/13 09:07:09;;;;;;;10.98;8.27;;;;;;;;;;5054345;28;20602;-67
2022/04/13 09:09:41;;;;;;;12.40;7.80;;;;;;;;;;5058136;28;20036;-67
2022/04/13 09:12:09;;;;;;;13.13;8.63;;;;;;;;;;5076697;28;20041;-67
2022/04/13 09:14:35;;;;;;;15.23;8.25;;;;;;;;;;5062456;28;20444;-67
2022/04/13 09:17:02;;;;;;;15.15;8.32;;;;;;;;;;5059157;28;20037;-67
2022/04/13 09:19:28;;;;;;;12.85;8.15;;;;;;;;;;5058691;28;20099;-67
2022/04/13 09:21:55;;;;;;;12.48;8.35;;;;;;;;;;5057855;28;20068;-67
2022/04/13 09:24:22;;;;;;;14.32;8.20;;;;;;;;;;5075671;28;20044;-67
2022/04/13 09:26:49;;;;;;;16.30;8.45;;;;;;;;;;5055719;28;20045;-67
2022/04/13 09:29:15;;;;;;;14.15;8.18;;;;;;;;;;5058154;28;20487;-67
2022/04/13 09:31:41;;;;;;;12.32;7.90;;;;;;;;;;5055735;28;20032;-67
2022/04/13 09:34:07;;;;;;;15.70;8.32;;;;;;;;;;5060025;28;20502;-67
2022/04/13 09:36:33;;;;;;;12.18;8.10;;;;;;;;;;5058526;28;20082;-66
2022/04/13 09:38:59;;;;;;;13.02;8.60;;;;;;;;;;5038985;28;20068;-67
2022/04/13 09:41:36;;;;;;;13.70;7.50;;;;;;;;;;5053260;28;20093;-67
2022/04/13 09:44:02;;;;;;;13.13;7.97;;;;;;;;;;5054066;28;20137;-67
2022/04/13 09:46:29;;;;;;;13.48;8.50;;;;;;;;;;5035397;28;20055;-68
2022/04/13 09:49:11;;;;;;;14.30;8.00;;;;;;;;;;5080128;28;20071;-68
2022/04/13 09:51:58;;;;;;;13.43;8.48;;;;;;;;;;5054090;28;20110;-68
2022/04/13 09:54:25;;;;;;;12.05;7.78;;;;;;;;;;5054384;28;20115;-68
2022/04/13 09:56:51;;;;;;;10.40;6.90;;;;;;;;;;5057097;28;20110;-68
2022/04/13 09:59:27;;;;;;;11.23;7.07;;;;;;;;;;5055198;28;20040;-68
2022/04/13 10:01:53;;;;;;;12.10;6.80;;;;;;;;;;5054383;28;20053;-67
2022/04/13 10:04:23;;;;;;;9.65;5.75;;;;;;;;;;5054537;28;20052;-67
2022/04/13 10:06:49;;;;;;;9.32;5.95;;;;;;;;;;5052093;28;20053;-68
2022/04/13 10:09:15;;;;;;;9.30;5.85;;;;;;;;;;5078971;28;20061;-68
2022/04/13 10:11:57;;;;;;;8.75;5.00;;;;;;;;;;5040270;28;20048;-68
2022/04/13 10:14:23;;;;;;;8.00;4.97;;;;;;;;;;5056280;28;20389;-68
2022/04/13 10:16:52;;;;;;;8.77;5.55;;;;;;;;;;5080014;28;20496;-68
2022/04/13 10:19:21;;;;;;;10.68;5.85;;;;;;;;;;5056131;28;20036;-68
2022/04/13 10:21:51;;;;;;;10.32;5.00;;;;;;;;;;5055892;28;20060;-68
2022/04/13 10:24:23;;;;;;;6.22;4.13;;;;;;;;;;5054013;28;20489;-68
2022/04/13 10:27:02;;;;;;;10.38;5.05;;;;;;;;;;5054214;28;20405;-68
2022/04/13 10:29:28;;;;;;;9.63;4.82;;;;;;;;;;5054796;28;20071;-68
2022/04/13 10:32:14;;;;;;;8.05;4.70;;;;;;;;;;5054504;28;20561;-68
2022/04/13 10:34:44;;;;;;;6.53;4.53;;;;;;;;;;5079866;28;20404;-68
2022/04/13 10:37:14;;;;;;;8.90;4.80;;;;;;;;;;5051321;28;20074;-68
2022/04/13 10:39:41;;;;;;;7.70;4.95;;;;;;;;;;5054265;28;20516;-68
2022/04/13 10:42:08;;;;;;;10.13;5.30;;;;;;;;;;5039056;28;20178;-68
2022/04/13 10:44:37;;;;;;;9.63;5.15;;;;;;;;;;5052862;28;20082;-68
2022/04/13 10:47:05;;;;;;;8.63;5.20;;;;;;;;;;5053470;28;20048;-68
2022/04/13 10:49:39;;;;;;;9.43;4.57;;;;;;;;;;5054960;28;20052;-68
2022/04/13 10:52:08;;;;;;;13.77;4.70;;;;;;;;;;5054217;28;20483;-68
2022/04/13 10:54:38;;;;;;;6.63;4.20;;;;;;;;;;5056237;28;20446;-68
2022/04/13 10:57:08;;;;;;;10.13;3.92;;;;;;;;;;5051061;28;20043;-67
2022/04/13 10:59:44;;;;;;;8.63;4.28;;;;;;;;;;5080517;28;20044;-68
2022/04/13 11:02:39;;;;;;;8.48;4.32;;;;;;;;;;5051229;28;20641;-68
2022/04/13 11:05:06;;;;;;;10.17;5.00;;;;;;;;;;5021915;28;20051;-68
2022/04/13 11:07:32;;;;;;;9.40;4.03;;;;;;;;;;5052158;28;20298;-68
2022/04/13 11:09:58;;;;;;;10.57;5.40;;;;;;;;;;5079039;28;20045;-68
2022/04/13 11:12:26;;;;;;;8.50;5.45;;;;;;;;;;5052120;28;20032;-68
2022/04/13 11:14:53;;;;;;;10.40;5.38;;;;;;;;;;5078913;28;20109;-68
2022/04/13 11:17:19;;;;;;;10.45;5.95;;;;;;;;;;5054935;28;20036;-67
2022/04/13 11:19:48;;;;;;;11.10;6.40;;;;;;;;;;5038726;28;20053;-68
2022/04/13 11:22:17;;;;;;;9.65;6.20;;;;;;;;;;5057178;28;20044;-68
2022/04/13 11:24:43;;;;;;;13.30;7.13;;;;;;;;;;5052357;28;20460;-68
2022/04/13 11:27:10;;;;;;;12.60;7.07;;;;;;;;;;5054228;28;20044;-68
2022/04/13 11:29:40;;;;;;;12.57;7.57;;;;;;;;;;5035359;28;20063;-68
2022/04/13 11:32:09;;;;;;;10.90;7.65;;;;;;;;;;5053627;28;20044;-68
2022/04/13 11:34:44;;;;;;;11.60;6.40;;;;;;;;;;5055621;28;20045;-67
2022/04/13 11:37:14;;;;;;;10.90;7.50;;;;;;;;;;5054342;28;20044;-68
2022/04/13 11:39:48;;;;;;;11.73;6.75;;;;;;;;;;5080033;28;20118;-68
2022/04/13 11:42:40;;;;;;;12.88;6.72;;;;;;;;;;5079497;28;20688;-67
2022/04/13 11:45:16;;;;;;;13.73;7.30;;;;;;;;;;5049990;28;20436;-68
2022/04/13 11:47:52;;;;;;;12.18;7.45;;;;;;;;;;5062248;28;20059;-68
2022/04/13 11:50:19;;;;;;;12.32;6.50;;;;;;;;;;5051427;28;20053;-68
2022/04/13 11:52:55;;;;;;;14.40;6.60;;;;;;;;;;5053665;28;20047;-68
2022/04/13 11:55:28;;;;;;;10.27;6.03;;;;;;;;;;5077750;28;20040;-68
2022/04/13 11:58:21;;;;;;;15.10;7.00;;;;;;;;;;5078999;28;20059;-68
2022/04/13 12:01:07;;;;;;;14.05;6.88;;;;;;;;;;5074793;28;20037;-68
2022/04/13 12:03:35;;;;;;;11.40;6.47;;;;;;;;;;5079181;28;20049;-68
2022/04/13 12:06:02;;;;;;;11.38;5.53;;;;;;;;;;5053147;28;20080;-67
2022/04/13 12:08:30;;;;;;;11.02;4.38;;;;;;;;;;5051624;28;20048;-68
2022/04/13 12:10:57;;;;;;;8.20;3.63;;;;;;;;;;5079445;28;20045;-68
2022/04/13 12:13:24;;;;;;;8.50;4.05;;;;;;;;;;5054848;28;20043;-68
2022/04/13 12:15:51;;;;;;;9.73;4.25;;;;;;;;;;5039435;28;20051;-68
2022/04/13 12:18:18;;;;;;;12.57;4.00;;;;;;;;;;5055463;28;20029;-68
2022/04/13 12:20:44;;;;;;;8.23;3.83;;;;;;;;;;5055794;28;20056;-68
2022/04/13 12:23:16;;;;;;;11.75;3.88;;;;;;;;;;5054930;28;20516;-68
2022/04/13 12:25:43;;;;;;;8.55;3.90;;;;;;;;;;5080899;28;20044;-68
2022/04/13 12:28:09;;;;;;;10.32;4.20;;;;;;;;;;5080472;28;20067;-68
2022/04/13 12:30:35;;;;;;;10.13;4.03;;;;;;;;;;5058114;28;20397;-68
2022/04/13 12:33:12;;;;;;;10.35;4.07;;;;;;;;;;5056468;28;20048;-68
2022/04/13 12:35:48;;;;;;;8.90;3.90;;;;;;;;;;5055304;28;20102;-68
2022/04/13 12:38:25;;;;;;;14.45;4.30;;;;;;;;;;5059158;28;20053;-68
2022/04/13 12:41:01;;;;;;;10.43;3.47;;;;;;;;;;5086169;28;20377;-68
2022/04/13 12:43:27;;;;;;;10.52;3.65;;;;;;;;;;5084546;28;20049;-68
2022/04/13 12:45:54;;;;;;;8.88;3.40;;;;;;;;;;5058024;28;20040;-68
2022/04/13 12:48:29;;;;;;;9.35;3.90;;;;;;;;;;5059907;28;20094;-68
2022/04/13 12:50:58;;;;;;;10.48;3.97;;;;;;;;;;5069731;28;20052;-68
2022/04/13 12:53:25;;;;;;;12.10;4.07;;;;;;;;;;5057776;28;20108;-68
2022/04/13 12:55:56;;;;;;;11.82;3.90;;;;;;;;;;5084011;28;20044;-68
2022/04/13 12:58:22;;;;;;;13.65;3.50;;;;;;;;;;5062852;28;20048;-68
2022/04/13 13:00:48;;;;;;;6.88;2.97;;;;;;;;;;5083464;28;20140;-68
2022/04/13 13:03:14;;;;;;;11.77;3.38;;;;;;;;;;5083516;28;20036;-68
2022/04/13 13:05:40;;;;;;;13.30;2.95;;;;;;;;;;5058239;28;20049;-68
2022/04/13 13:08:07;;;;;;;8.02;2.95;;;;;;;;;;5058294;28;20087;-68
2022/04/13 13:10:33;;;;;;;10.57;2.53;;;;;;;;;;5057403;28;20037;-68
2022/04/13 13:13:19;;;;;;;8.38;2.83;;;;;;;;;;5061241;28;20041;-68
2022/04/13 13:15:45;;;;;;;6.88;2.72;;;;;;;;;;5061409;28;20651;-68
2022/04/13 13:18:11;;;;;;;7.30;2.72;;;;;;;;;;5044418;28;20049;-67
2022/04/13 13:20:57;;;;;;;14.18;2.63;;;;;;;;;;5057305;28;20125;-69
2022/04/13 13:23:29;;;;;;;9.85;3.60;;;;;;;;;;5083026;28;20127;-68
2022/04/13 13:25:55;;;;;;;12.23;3.42;;;;;;;;;;5060174;28;20475;-69
2022/04/13 13:28:23;;;;;;;8.68;3.10;;;;;;;;;;5049473;28;20029;-69
2022/04/13 13:30:51;;;;;;;9.32;3.08;;;;;;;;;;5056563;28;20037;-68
2022/04/13 13:33:19;;;;;;;9.27;2.78;;;;;;;;;;5054864;28;20049;-68
2022/04/13 13:35:45;;;;;;;6.05;2.75;;;;;;;;;;5055413;28;20056;-66
2022/04/13 13:38:11;;;;;;;11.02;3.30;;;;;;;;;;5057104;28;20084;-66
2022/04/13 13:40:40;;;;;;;9.85;2.88;;;;;;;;;;5055520;28;20052;-66
2022/04/13 13:43:06;;;;;;;14.20;3.72;;;;;;;;;;5057527;28;20057;-67
2022/04/13 13:45:50;;;;;;;11.30;4.30;;;;;;;;;;5081607;28;20441;-67
2022/04/13 13:48:26;;;;;;;11.88;4.40;;;;;;;;;;5059560;28;20053;-67
2022/04/13 13:50:52;;;;;;;;;;;;;;;;;;5039513;28;20120;-67
2022/04/13 13:53:19;;;;;;;13.32;4.57;;;;;;;;;;5057100;28;19920;-66
2022/04/13 13:55:46;;;;;;;11.52;4.40;;;;;;;;;;5083264;28;20044;-67
2022/04/13 13:58:12;;;;;;;10.18;4.18;;;;;;;;;;5084802;28;20044;-67
2022/04/13 14:00:39;;;;;;;12.65;4.70;;;;;;;;;;5052573;28;20053;-67
2022/04/13 14:03:10;;;;;;;13.13;4.85;;;;;;;;;;5085352;28;20044;-67
2022/04/13 14:05:36;;;;;;;10.45;4.30;;;;;;;;;;5053782;28;20485;-67
2022/04/13 14:08:09;;;;;;;11.63;4.82;;;;;;;;;;5057242;28;20429;-67
2022/04/13 14:10:36;;;;;;;9.13;4.07;;;;;;;;;;5059084;28;20037;-67
2022/04/13 14:13:03;;;;;;;11.02;3.90;;;;;;;;;;5057664;28;20040;-67
2022/04/13 14:15:29;;;;;;;15.68;4.47;;;;;;;;;;5059857;28;20461;-67
2022/04/13 14:17:56;;;;;;;11.10;3.67;;;;;;;;;;5081258;28;20063;-67
2022/04/13 14:20:25;;;;;;;8.02;3.30;;;;;;;;;;5038587;28;20048;-67
2022/04/13 14:22:54;;;;;;;9.10;3.30;;;;;;;;;;5065293;28;20033;-67
2022/04/13 14:25:20;;;;;;;9.05;3.25;;;;;;;;;;5079878;28;20179;-67
2022/04/13 14:27:52;;;;;;;7.63;3.10;;;;;;;;;;5059503;28;20041;-67
2022/04/13 14:30:20;;;;;;;7.50;3.17;;;;;;;;;;5081830;28;20079;-67
2022/04/13 14:32:47;;;;;;;9.55;3.22;;;;;;;;;;5058837;28;20041;-67